Time;durP1;ratioP1;P1;durP2;ratioP2;P2;SDS_P1;SDS_P2;PMS_P1;PMS_P2;Temp;Humidity;BMP_temperature;BMP_pressure;BME280_temperature;BME280_humidity;BME280_pressure;Samples;Min_cycle;Max_cycle;Signal;HPM_P1;HPM_P2
2021/08/31 00:00:56;;;;;;;9.63;5.75;;;409.70;2355.20;;;;;;5095384;28;20034;-77
2021/08/31 00:03:22;;;;;;;8.75;5.15;;;409.60;2355.20;;;;;;5077248;28;20020;-76
2021/08/31 00:05:48;;;;;;;8.13;6.18;;;384.90;2329.60;;;;;;5095276;28;20039;-76
2021/08/31 00:08:14;;;;;;;9.38;5.85;;;384.90;2329.60;;;;;;5108549;28;20385;-75
2021/08/31 00:10:39;;;;;;;10.02;6.30;;;384.90;2329.60;;;;;;5092190;28;20076;-75
2021/08/31 00:13:05;;;;;;;9.52;5.90;;;384.90;2329.60;;;;;;5077107;28;20066;-75
2021/08/31 00:15:32;;;;;;;6.80;5.57;;;409.60;2355.20;;;;;;5095095;28;20035;-75
2021/08/31 00:18:01;;;;;;;7.57;5.50;;;409.60;2355.20;;;;;;5094940;28;20060;-78
2021/08/31 00:20:30;;;;;;;8.63;6.28;;;409.60;2355.20;;;;;;5074635;28;20062;-76
2021/08/31 00:22:56;;;;;;;7.60;6.28;;;409.60;2355.20;;;;;;5076961;28;20024;-77
2021/08/31 00:25:22;;;;;;;7.13;5.32;;;409.60;2355.20;;;;;;5094914;28;20026;-76
2021/08/31 00:27:47;;;;;;;9.45;6.18;;;384.90;2329.60;;;;;;5095028;28;20012;-76
2021/08/31 00:30:13;;;;;;;9.57;6.07;;;384.90;2329.60;;;;;;5077076;28;20066;-78
2021/08/31 00:32:40;;;;;;;7.35;5.40;;;409.60;2355.20;;;;;;5094600;28;20026;-77
2021/08/31 00:35:06;;;;;;;12.48;6.10;;;409.70;2355.20;;;;;;5094711;28;20122;-75
2021/08/31 00:37:32;;;;;;;7.25;5.85;;;409.80;2355.20;;;;;;5076751;28;20059;-75
2021/08/31 00:39:58;;;;;;;9.23;5.65;;;409.90;2355.20;;;;;;5094549;28;20540;-79
2021/08/31 00:42:23;;;;;;;8.95;6.07;;;409.90;2355.20;;;;;;5094573;28;20022;-75
2021/08/31 00:44:49;;;;;;;8.02;5.68;;;409.90;2355.20;;;;;;5094420;28;20027;-76
2021/08/31 00:47:15;;;;;;;8.35;5.97;;;409.90;2355.20;;;;;;5094487;28;20016;-76
2021/08/31 00:49:41;;;;;;;8.57;5.85;;;409.70;2355.20;;;;;;5076023;28;20645;-76
2021/08/31 00:52:07;;;;;;;10.95;6.75;;;409.70;2355.20;;;;;;5075817;28;20035;-75
2021/08/31 00:54:33;;;;;;;7.60;5.40;;;409.70;2355.20;;;;;;5075926;28;20124;-76
2021/08/31 00:57:04;;;;;;;8.38;6.15;;;409.80;2355.20;;;;;;5094300;28;20507;-76
2021/08/31 00:59:31;;;;;;;12.45;5.78;;;409.90;2355.20;;;;;;5091970;28;20103;-76
2021/08/31 01:01:58;;;;;;;8.98;6.63;;;409.70;2355.20;;;;;;5094222;28;20027;-79
2021/08/31 01:04:26;;;;;;;8.55;5.35;;;409.70;2355.20;;;;;;5093911;28;20016;-75
2021/08/31 01:06:53;;;;;;;10.60;5.80;;;409.70;2355.20;;;;;;5076057;28;20097;-79
2021/08/31 01:09:23;;;;;;;9.60;6.47;;;409.70;2355.20;;;;;;5075873;28;20026;-75
2021/08/31 01:11:51;;;;;;;8.63;6.15;;;409.60;2355.20;;;;;;5094035;28;20465;-75
2021/08/31 01:14:18;;;;;;;9.38;6.32;;;384.80;2329.60;;;;;;5093833;28;20044;-76
2021/08/31 01:16:44;;;;;;;7.45;5.68;;;384.70;2329.60;;;;;;5094045;28;20024;-75
2021/08/31 01:19:14;;;;;;;7.47;5.82;;;384.60;2329.60;;;;;;5093797;28;20012;-75
2021/08/31 01:21:40;;;;;;;8.63;6.85;;;384.60;2329.60;;;;;;5093783;28;20020;-76
2021/08/31 01:24:06;;;;;;;15.00;7.35;;;384.50;2329.60;;;;;;5093984;28;20167;-76
2021/08/31 01:26:32;;;;;;;12.48;8.20;;;384.40;2329.60;;;;;;5093897;28;20415;-75
2021/08/31 01:28:58;;;;;;;11.52;7.60;;;384.30;2329.60;;;;;;5098385;28;20031;-78
2021/08/31 01:31:24;;;;;;;11.68;8.00;;;384.30;2329.60;;;;;;5115440;27;20024;-75
2021/08/31 01:33:50;;;;;;;12.85;7.90;;;384.20;2329.60;;;;;;5093156;28;20469;-75
2021/08/31 01:36:21;;;;;;;11.55;8.07;;;384.10;2329.60;;;;;;5093382;28;20040;-76
2021/08/31 01:38:52;;;;;;;11.00;8.25;;;384.30;2329.60;;;;;;5093221;28;20041;-75
2021/08/31 01:41:19;;;;;;;12.93;8.93;;;384.20;2329.60;;;;;;5098340;28;20388;-77
2021/08/31 01:43:45;;;;;;;9.77;8.30;;;384.20;2329.60;;;;;;5094839;28;20018;-76
2021/08/31 01:46:11;;;;;;;11.35;8.82;;;384.30;2329.60;;;;;;5092844;28;20024;-78
2021/08/31 01:48:37;;;;;;;11.10;8.15;;;384.30;2329.60;;;;;;5098170;28;20487;-75
2021/08/31 01:51:05;;;;;;;12.35;9.25;;;384.50;2329.60;;;;;;5093325;28;20024;-79
2021/08/31 01:53:31;;;;;;;10.80;7.68;;;384.60;2329.60;;;;;;5093100;28;20012;-75
2021/08/31 01:55:57;;;;;;;14.63;8.63;;;384.60;2329.60;;;;;;5092836;28;20051;-79
2021/08/31 01:58:23;;;;;;;12.02;8.48;;;384.60;2329.60;;;;;;5092944;28;20020;-76
2021/08/31 02:00:49;;;;;;;12.98;8.48;;;384.60;2329.60;;;;;;5093071;28;20030;-75
2021/08/31 02:03:15;;;;;;;12.57;8.52;;;384.60;2329.60;;;;;;5092944;28;20027;-76
2021/08/31 02:05:40;;;;;;;10.20;7.75;;;384.70;2329.60;;;;;;5092874;28;20016;-75
2021/08/31 02:08:06;;;;;;;11.10;8.45;;;384.80;2329.60;;;;;;5074796;28;20062;-76
2021/08/31 02:10:33;;;;;;;11.82;8.18;;;384.60;2329.60;;;;;;5074443;28;20047;-76
2021/08/31 02:12:59;;;;;;;16.52;9.13;;;384.60;2329.60;;;;;;5074676;28;20043;-76
2021/08/31 02:15:24;;;;;;;12.63;8.43;;;384.60;2329.60;;;;;;5074949;28;20121;-75
2021/08/31 02:17:50;;;;;;;11.75;8.20;;;384.50;2329.60;;;;;;5092274;28;20073;-75
2021/08/31 02:20:16;;;;;;;12.15;9.52;;;384.40;2329.60;;;;;;5075108;28;20107;-76
2021/08/31 02:22:42;;;;;;;12.98;8.93;;;384.10;2329.60;;;;;;5092669;28;20023;-76
2021/08/31 02:25:09;;;;;;;14.02;10.15;;;384.20;2329.60;;;;;;5092520;28;20028;-75
2021/08/31 02:27:35;;;;;;;14.15;9.68;;;384.30;2329.60;;;;;;5092589;28;20021;-78
2021/08/31 02:30:01;;;;;;;12.88;9.55;;;384.30;2329.60;;;;;;5092825;28;20528;-75
2021/08/31 02:32:26;;;;;;;14.52;9.77;;;384.30;2329.60;;;;;;5092587;28;20024;-75
2021/08/31 02:34:52;;;;;;;13.35;10.52;;;384.40;2329.60;;;;;;5092442;28;20482;-76
2021/08/31 02:37:18;;;;;;;15.60;9.75;;;384.40;2329.60;;;;;;5092556;28;20550;-75
2021/08/31 02:39:44;;;;;;;14.18;9.73;;;384.60;2329.60;;;;;;5074667;28;20024;-75
2021/08/31 02:42:10;;;;;;;13.95;9.85;;;384.60;2329.60;;;;;;5074533;28;20104;-76
2021/08/31 02:44:35;;;;;;;18.00;9.90;;;384.80;2329.60;;;;;;5092612;28;20396;-79
2021/08/31 02:47:01;;;;;;;13.73;9.60;;;384.90;2329.60;;;;;;5092497;28;20136;-76
2021/08/31 02:49:27;;;;;;;17.08;9.93;;;409.60;2355.20;;;;;;5074352;28;20027;-75
2021/08/31 02:51:53;;;;;;;15.10;9.93;;;384.90;2329.60;;;;;;5085812;28;20456;-75
2021/08/31 02:54:19;;;;;;;13.82;9.60;;;384.80;2329.60;;;;;;5074301;28;20058;-76
2021/08/31 02:56:44;;;;;;;12.40;9.35;;;384.70;2329.60;;;;;;5094983;28;20028;-76
2021/08/31 02:59:10;;;;;;;13.55;10.20;;;384.60;2329.60;;;;;;5109895;28;20073;-76
2021/08/31 03:02:04;;;;;;;14.40;9.38;;;384.60;2329.60;;;;;;5090202;28;20106;-76
2021/08/31 03:04:25;;;;;;;13.13;9.85;;;384.70;2329.60;;;;;;5095749;28;20027;-75
2021/08/31 03:06:51;;;;;;;16.45;9.75;;;384.80;2329.60;;;;;;5092242;28;20032;-80
2021/08/31 03:09:16;;;;;;;15.13;9.35;;;409.60;2355.20;;;;;;5092127;28;20020;-76
2021/08/31 03:11:42;;;;;;;11.48;9.10;;;384.90;2329.60;;;;;;5074149;28;20481;-76
2021/08/31 03:14:08;;;;;;;19.70;8.88;;;384.90;2329.60;;;;;;5091921;28;20024;-75
2021/08/31 03:16:34;;;;;;;14.30;8.85;;;384.90;2329.60;;;;;;5073914;28;20061;-75
2021/08/31 03:19:00;;;;;;;12.68;9.88;;;384.70;2329.60;;;;;;5084634;28;20016;-76
2021/08/31 03:21:26;;;;;;;16.73;9.18;;;384.80;2329.60;;;;;;5124796;28;20027;-75
2021/08/31 03:23:51;;;;;;;11.60;9.50;;;384.90;2329.60;;;;;;5074273;28;20054;-76
2021/08/31 03:26:17;;;;;;;12.95;10.13;;;384.90;2329.60;;;;;;5092137;28;20040;-78
2021/08/31 03:28:43;;;;;;;12.60;10.18;;;384.90;2329.60;;;;;;5074737;28;20020;-76
2021/08/31 03:31:09;;;;;;;12.75;10.25;;;384.90;2329.60;;;;;;5096035;28;20441;-76
2021/08/31 03:33:34;;;;;;;14.10;9.98;;;409.70;2355.20;;;;;;5097131;28;20483;-76
2021/08/31 03:36:00;;;;;;;16.27;10.70;;;409.60;2355.20;;;;;;5096301;28;20404;-76
2021/08/31 03:38:26;;;;;;;21.00;11.00;;;384.90;2329.60;;;;;;5094475;28;20047;-81
2021/08/31 03:40:52;;;;;;;15.82;10.60;;;409.60;2355.20;;;;;;5096544;28;20525;-76
2021/08/31 03:43:17;;;;;;;15.30;10.70;;;409.60;2355.20;;;;;;5107813;28;20023;-76
2021/08/31 03:45:43;;;;;;;20.40;11.20;;;384.90;2329.60;;;;;;5111570;28;20020;-76
2021/08/31 03:48:09;;;;;;;20.17;10.95;;;384.80;2329.60;;;;;;5105279;28;20048;-76
2021/08/31 03:50:35;;;;;;;19.00;11.20;;;384.80;2329.60;;;;;;5108867;28;20043;-77
2021/08/31 03:53:00;;;;;;;21.10;12.40;;;384.90;2329.60;;;;;;5095979;28;20015;-76
2021/08/31 03:55:26;;;;;;;25.25;13.02;;;384.90;2329.60;;;;;;5100550;28;20062;-75
2021/08/31 03:57:52;;;;;;;19.17;12.80;;;384.80;2329.60;;;;;;5113733;28;20525;-75
2021/08/31 04:00:18;;;;;;;20.55;13.32;;;384.60;2329.60;;;;;;5116629;28;20095;-80
2021/08/31 04:02:44;;;;;;;22.98;13.18;;;384.60;2329.60;;;;;;5116352;28;20016;-79
2021/08/31 04:05:10;;;;;;;18.80;13.32;;;384.50;2329.60;;;;;;5097964;28;20059;-76
2021/08/31 04:07:36;;;;;;;21.48;13.23;;;384.40;2329.60;;;;;;5116324;28;20024;-76
2021/08/31 04:10:01;;;;;;;20.05;13.52;;;384.50;2329.60;;;;;;5116273;28;20030;-80
2021/08/31 04:12:27;;;;;;;24.02;14.77;;;384.70;2329.60;;;;;;5116361;28;20023;-76
2021/08/31 04:14:53;;;;;;;22.00;14.40;;;384.70;2329.60;;;;;;5116015;28;20536;-75
2021/08/31 04:17:18;;;;;;;24.67;13.75;;;384.90;2329.60;;;;;;5116294;28;20404;-76
2021/08/31 04:19:44;;;;;;;16.85;12.40;;;409.70;2355.20;;;;;;5097441;28;20400;-81
2021/08/31 04:22:10;;;;;;;21.50;12.45;;;409.90;2355.20;;;;;;5116292;28;20054;-76
2021/08/31 04:24:36;;;;;;;18.73;12.15;;;410.00;2355.20;;;;;;5116247;28;20066;-78
2021/08/31 04:27:03;;;;;;;13.82;11.38;;;409.90;2355.20;;;;;;5116031;28;20026;-80
2021/08/31 04:29:29;;;;;;;16.08;12.32;;;409.80;2355.20;;;;;;5115942;28;20038;-76
2021/08/31 04:31:55;;;;;;;14.32;11.52;;;409.60;2355.20;;;;;;5115962;28;20385;-76
2021/08/31 04:34:20;;;;;;;19.38;11.10;;;410.20;2355.20;;;;;;5115694;28;20039;-78
2021/08/31 04:36:46;;;;;;;14.85;11.02;;;409.90;2355.20;;;;;;5097406;28;20035;-77
2021/08/31 04:39:12;;;;;;;13.13;11.25;;;410.10;2355.20;;;;;;5115489;28;20362;-77
2021/08/31 04:41:38;;;;;;;14.55;11.77;;;410.20;2355.20;;;;;;5096785;28;20092;-76
2021/08/31 04:44:03;;;;;;;14.30;11.20;;;410.20;2355.20;;;;;;5091494;28;20020;-76
2021/08/31 04:46:29;;;;;;;13.85;10.85;;;410.30;2355.20;;;;;;5106987;28;20456;-76
2021/08/31 04:48:55;;;;;;;14.07;11.35;;;410.30;2355.20;;;;;;5097013;28;20011;-77
2021/08/31 04:51:20;;;;;;;18.02;11.75;;;410.40;2355.20;;;;;;5115252;28;20023;-76
2021/08/31 04:53:46;;;;;;;20.10;11.13;;;410.50;2355.20;;;;;;5100804;28;20035;-76
2021/08/31 04:56:12;;;;;;;16.27;11.77;;;410.50;2355.20;;;;;;5100664;28;20039;-76
2021/08/31 04:58:37;;;;;;;15.02;11.30;;;410.50;2355.20;;;;;;5115368;28;20209;-76
2021/08/31 05:01:03;;;;;;;13.57;10.05;;;410.50;2355.20;;;;;;5115068;28;20102;-80
2021/08/31 05:03:30;;;;;;;15.13;10.55;;;410.50;2355.20;;;;;;5107367;28;20024;-77
2021/08/31 05:05:55;;;;;;;15.80;12.10;;;410.40;2355.20;;;;;;5108421;28;20023;-76
2021/08/31 05:08:21;;;;;;;15.77;10.82;;;410.50;2355.20;;;;;;5114999;28;20019;-77
2021/08/31 05:10:48;;;;;;;16.23;10.65;;;435.20;2355.20;;;;;;5114971;28;20027;-77
2021/08/31 05:13:14;;;;;;;13.60;11.18;;;435.30;2355.20;;;;;;5100590;28;20019;-78
2021/08/31 05:15:40;;;;;;;14.23;11.15;;;435.30;2355.20;;;;;;5086570;28;20518;-76
2021/08/31 05:18:06;;;;;;;14.68;10.32;;;435.40;2355.20;;;;;;5090649;28;20064;-80
2021/08/31 05:20:32;;;;;;;18.08;10.95;;;435.40;2355.20;;;;;;5102746;28;20051;-80
2021/08/31 05:23:00;;;;;;;16.25;10.93;;;435.40;2355.20;;;;;;5096853;28;20024;-79
2021/08/31 05:25:27;;;;;;;12.95;11.05;;;435.40;2355.20;;;;;;5068839;28;20023;-79
2021/08/31 05:27:53;;;;;;;11.98;10.35;;;435.40;2355.20;;;;;;5096426;28;20123;-76
2021/08/31 05:30:19;;;;;;;15.57;10.10;;;435.40;2355.20;;;;;;5114552;28;20028;-75
2021/08/31 05:32:45;;;;;;;11.23;9.52;;;435.30;2355.20;;;;;;5114615;28;20020;-76
2021/08/31 05:35:11;;;;;;;13.52;8.98;;;435.40;2355.20;;;;;;5114063;28;20062;-76
2021/08/31 05:37:38;;;;;;;11.68;8.40;;;435.30;2355.20;;;;;;5101700;28;20028;-77
2021/08/31 05:40:06;;;;;;;11.70;8.88;;;435.30;2355.20;;;;;;5075117;28;20052;-78
2021/08/31 05:42:31;;;;;;;11.75;8.05;;;435.30;2355.20;;;;;;5075293;28;20031;-75
2021/08/31 05:44:57;;;;;;;13.68;9.75;;;435.30;2355.20;;;;;;5075601;28;20028;-78
2021/08/31 05:47:23;;;;;;;15.07;10.13;;;435.30;2355.20;;;;;;5093390;28;20024;-77
2021/08/31 05:49:48;;;;;;;17.20;9.85;;;435.30;2355.20;;;;;;5081491;28;20039;-77
2021/08/31 05:52:14;;;;;;;18.20;11.20;;;435.30;2355.20;;;;;;5105110;28;20027;-78
2021/08/31 05:54:40;;;;;;;16.48;11.45;;;435.40;2355.20;;;;;;5093177;28;20481;-76
2021/08/31 05:57:10;;;;;;;15.70;10.23;;;435.40;2355.20;;;;;;5105100;28;20031;-79
2021/08/31 05:59:39;;;;;;;13.85;9.35;;;435.40;2355.20;;;;;;5081551;28;20492;-76
2021/08/31 06:02:11;;;;;;;15.00;9.52;;;435.30;2355.20;;;;;;5114196;28;20026;-77
2021/08/31 06:04:38;;;;;;;19.27;12.32;;;435.30;2355.20;;;;;;5113614;28;20032;-78
2021/08/31 06:07:08;;;;;;;13.90;9.63;;;435.30;2355.20;;;;;;5114112;28;20059;-75
2021/08/31 06:09:39;;;;;;;13.35;8.75;;;435.40;2355.20;;;;;;5112142;28;20068;-78
2021/08/31 06:12:07;;;;;;;16.27;8.52;;;435.40;2355.20;;;;;;5093475;28;20358;-80
2021/08/31 06:14:33;;;;;;;16.42;8.82;;;435.30;2355.20;;;;;;5108190;28;20031;-77
2021/08/31 06:16:59;;;;;;;14.40;9.07;;;435.30;2355.20;;;;;;5113681;28;20023;-76
2021/08/31 06:19:25;;;;;;;13.63;8.88;;;435.30;2355.20;;;;;;5113684;28;20024;-76
2021/08/31 06:21:51;;;;;;;13.15;8.98;;;435.30;2355.20;;;;;;5113484;28;20022;-75
2021/08/31 06:24:17;;;;;;;16.40;8.80;;;435.30;2355.20;;;;;;5095394;28;20118;-76
2021/08/31 06:26:42;;;;;;;12.02;9.05;;;435.30;2355.20;;;;;;5113509;28;20103;-76
2021/08/31 06:29:08;;;;;;;16.60;10.02;;;435.30;2355.20;;;;;;5104745;28;20116;-76
2021/08/31 06:31:34;;;;;;;13.85;9.95;;;435.30;2355.20;;;;;;5090064;28;20032;-78
2021/08/31 06:33:59;;;;;;;15.02;9.77;;;435.30;2355.20;;;;;;5113427;28;20028;-78
2021/08/31 06:36:25;;;;;;;16.75;8.10;;;435.30;2355.20;;;;;;5113460;28;20024;-77
2021/08/31 06:38:51;;;;;;;15.43;9.63;;;435.30;2355.20;;;;;;5113446;28;20019;-76
2021/08/31 06:41:17;;;;;;;11.95;7.93;;;435.30;2355.20;;;;;;5113548;28;20095;-76
2021/08/31 06:43:45;;;;;;;13.55;8.93;;;435.40;2355.20;;;;;;5094714;28;20041;-77
2021/08/31 06:46:11;;;;;;;15.27;8.65;;;435.30;2355.20;;;;;;5095243;28;20020;-77
2021/08/31 06:48:39;;;;;;;12.35;8.30;;;435.30;2355.20;;;;;;5093855;28;20450;-77
2021/08/31 06:51:04;;;;;;;19.65;9.77;;;435.40;2355.20;;;;;;5092967;28;20028;-76
2021/08/31 06:53:30;;;;;;;14.95;9.10;;;435.40;2355.20;;;;;;5093014;28;20020;-79
2021/08/31 06:55:56;;;;;;;13.07;8.13;;;435.40;2355.20;;;;;;5079857;28;20052;-75
2021/08/31 06:58:21;;;;;;;13.48;7.93;;;435.30;2355.20;;;;;;5113555;28;20026;-79
2021/08/31 07:00:47;;;;;;;13.13;8.50;;;435.40;2355.20;;;;;;5095041;28;20034;-75
2021/08/31 07:03:13;;;;;;;14.05;9.60;;;435.40;2355.20;;;;;;5114014;28;20388;-75
2021/08/31 07:05:39;;;;;;;19.25;9.02;;;435.50;2355.20;;;;;;5117220;28;20035;-75
2021/08/31 07:08:05;;;;;;;13.65;10.10;;;435.60;2355.20;;;;;;5117481;28;20026;-78
2021/08/31 07:10:30;;;;;;;20.92;10.35;;;435.60;2355.20;;;;;;5117412;28;20028;-78
2021/08/31 07:12:56;;;;;;;13.60;8.88;;;435.70;2355.20;;;;;;5117384;28;20016;-80
2021/08/31 07:15:22;;;;;;;11.30;8.38;;;435.80;2355.20;;;;;;5110313;28;20434;-80
2021/08/31 07:17:48;;;;;;;15.82;8.68;;;435.80;2355.20;;;;;;5092588;28;20032;-79
2021/08/31 07:20:14;;;;;;;11.25;8.05;;;435.80;2355.20;;;;;;5117265;28;20024;-77
2021/08/31 07:22:39;;;;;;;13.35;8.10;;;435.80;2355.20;;;;;;5117516;28;20019;-78
2021/08/31 07:25:06;;;;;;;12.30;8.60;;;435.70;2355.20;;;;;;5116938;28;20490;-77
2021/08/31 07:27:31;;;;;;;12.57;8.15;;;435.70;2355.20;;;;;;5117214;28;20024;-79
2021/08/31 07:29:57;;;;;;;12.82;7.82;;;435.80;2355.20;;;;;;5101701;28;20042;-78
2021/08/31 07:32:23;;;;;;;13.90;8.98;;;435.90;2355.20;;;;;;5096053;28;20104;-77
2021/08/31 07:34:49;;;;;;;14.07;9.02;;;435.90;2355.20;;;;;;5095881;28;20426;-79
2021/08/31 07:37:14;;;;;;;12.00;7.93;;;435.90;2355.20;;;;;;5096348;28;20135;-78
2021/08/31 07:39:41;;;;;;;14.43;9.45;;;435.90;2355.20;;;;;;5095825;28;20111;-79
2021/08/31 07:42:07;;;;;;;19.52;11.32;;;436.00;2355.20;;;;;;5109450;28;20457;-75
2021/08/31 07:44:32;;;;;;;17.58;10.60;;;436.10;2355.20;;;;;;5108170;28;20016;-77
2021/08/31 07:46:58;;;;;;;17.05;10.35;;;436.10;2355.20;;;;;;5095800;28;20028;-75
2021/08/31 07:49:24;;;;;;;18.65;9.65;;;436.10;2355.20;;;;;;5077548;28;20051;-77
2021/08/31 07:51:50;;;;;;;16.08;10.88;;;436.10;2355.20;;;;;;5077565;28;20032;-78
2021/08/31 07:54:15;;;;;;;14.15;10.55;;;436.10;2355.20;;;;;;5077603;28;20035;-75
2021/08/31 07:56:41;;;;;;;13.07;9.63;;;460.80;2380.80;;;;;;5092347;28;20102;-77
2021/08/31 07:59:07;;;;;;;15.18;9.80;;;460.80;2380.80;;;;;;5095427;28;20066;-75
2021/08/31 08:01:33;;;;;;;13.90;10.05;;;460.80;2380.80;;;;;;5077695;28;20028;-78
2021/08/31 08:03:59;;;;;;;14.07;10.85;;;460.80;2380.80;;;;;;5103014;28;20020;-75
2021/08/31 08:06:25;;;;;;;13.93;11.10;;;460.80;2380.80;;;;;;5107878;28;20020;-75
2021/08/31 08:08:51;;;;;;;16.77;12.27;;;460.90;2380.80;;;;;;5111279;28;20021;-75
2021/08/31 08:11:18;;;;;;;20.83;13.40;;;460.80;2380.80;;;;;;5109804;28;20019;-79
2021/08/31 08:13:44;;;;;;;14.85;9.75;;;460.80;2380.80;;;;;;5109409;28;20012;-78
2021/08/31 08:16:10;;;;;;;15.88;10.90;;;460.80;2380.80;;;;;;5110740;28;20035;-76
2021/08/31 08:18:36;;;;;;;18.25;11.85;;;460.80;2380.80;;;;;;5095479;28;20020;-77
2021/08/31 08:21:01;;;;;;;14.57;10.38;;;460.90;2380.80;;;;;;5095215;28;20139;-79
2021/08/31 08:23:28;;;;;;;14.70;9.68;;;460.90;2380.80;;;;;;5098504;28;20457;-78
2021/08/31 08:25:54;;;;;;;14.13;9.85;;;460.90;2380.80;;;;;;5096720;28;20481;-78
2021/08/31 08:28:21;;;;;;;13.82;8.98;;;461.00;2380.80;;;;;;5114111;28;20055;-76
2021/08/31 08:30:48;;;;;;;13.57;8.45;;;461.10;2380.80;;;;;;5106114;28;20035;-78
2021/08/31 08:33:13;;;;;;;11.25;8.13;;;461.20;2380.80;;;;;;5090672;28;20106;-77
2021/08/31 08:35:39;;;;;;;14.57;8.70;;;461.40;2380.80;;;;;;5114282;28;20111;-76
2021/08/31 08:38:05;;;;;;;9.35;7.80;;;461.50;2380.80;;;;;;5114795;28;20103;-75
2021/08/31 08:40:34;;;;;;;13.70;7.55;;;461.50;2380.80;;;;;;5106298;28;20069;-77
2021/08/31 08:43:05;;;;;;;6.80;5.28;;;461.50;2380.80;;;;;;5094539;28;20020;-78
2021/08/31 08:45:32;;;;;;;7.78;6.28;;;461.60;2380.80;;;;;;5094587;28;20066;-80
2021/08/31 08:47:58;;;;;;;10.27;5.47;;;461.60;2380.80;;;;;;5094662;28;20027;-78
2021/08/31 08:50:24;;;;;;;10.13;6.60;;;461.70;2380.80;;;;;;5076540;28;20070;-78
2021/08/31 08:52:50;;;;;;;7.95;6.13;;;461.70;2380.80;;;;;;5094662;28;20066;-74
2021/08/31 08:55:16;;;;;;;8.80;5.45;;;486.40;2380.80;;;;;;5094066;28;20044;-78
2021/08/31 08:57:43;;;;;;;8.20;3.80;;;486.50;2380.80;;;;;;5094331;28;20069;-78
2021/08/31 09:00:11;;;;;;;6.38;4.00;;;486.70;2380.80;;;;;;5094271;28;20182;-78
2021/08/31 09:02:43;;;;;;;6.85;5.05;;;486.70;2380.80;;;;;;5094126;28;20025;-76
2021/08/31 09:05:11;;;;;;;9.98;5.43;;;486.70;2380.80;;;;;;5094066;28;20093;-79
2021/08/31 09:07:41;;;;;;;5.97;4.40;;;486.70;2380.80;;;;;;5094266;28;20594;-78
2021/08/31 09:10:20;;;;;;;6.85;4.60;;;486.80;2380.80;;;;;;5093722;28;20028;-77
2021/08/31 09:12:49;;;;;;;5.70;4.43;;;486.90;2380.80;;;;;;5091994;28;20020;-78
2021/08/31 09:15:21;;;;;;;5.95;4.07;;;487.00;2380.80;;;;;;5093960;28;20032;-78
2021/08/31 09:18:12;;;;;;;6.90;4.88;;;487.00;2380.80;;;;;;5092033;28;20378;-75
2021/08/31 09:20:47;;;;;;;5.13;3.97;;;487.10;2380.80;;;;;;5087322;28;20047;-74
2021/08/31 09:23:22;;;;;;;7.15;4.45;;;487.10;2380.80;;;;;;5096068;28;20012;-77
2021/08/31 09:25:52;;;;;;;6.25;3.47;;;487.20;2380.80;;;;;;5096301;28;20016;-76
2021/08/31 09:28:20;;;;;;;7.90;4.10;;;512.00;2380.80;;;;;;5095281;28;20013;-74
2021/08/31 09:30:54;;;;;;;5.45;3.45;;;512.30;2380.80;;;;;;5095870;28;20055;-77
2021/08/31 09:33:20;;;;;;;7.55;3.45;;;512.50;2380.80;;;;;;5075483;28;20016;-77
2021/08/31 09:35:58;;;;;;;4.72;3.03;;;512.60;2380.80;;;;;;5093279;28;20043;-78
2021/08/31 09:38:24;;;;;;;4.28;2.85;;;512.70;2380.80;;;;;;5101786;28;20024;-76
2021/08/31 09:40:53;;;;;;;7.53;3.20;;;512.70;2380.80;;;;;;5102758;28;20031;-75
2021/08/31 09:43:25;;;;;;;4.43;3.30;;;512.90;2380.80;;;;;;5099161;28;20093;-76
2021/08/31 09:45:54;;;;;;;8.65;3.05;;;537.70;2406.40;;;;;;5093100;28;20112;-76
2021/08/31 09:48:21;;;;;;;4.40;3.10;;;537.80;2406.40;;;;;;5093073;28;20545;-75
2021/08/31 09:50:49;;;;;;;4.20;2.90;;;538.00;2406.40;;;;;;5093179;28;20024;-78
2021/08/31 09:53:22;;;;;;;4.25;3.10;;;538.00;2406.40;;;;;;5093393;28;20081;-78
2021/08/31 09:56:08;;;;;;;5.60;3.00;;;538.20;2406.40;;;;;;5091278;28;20050;-74
2021/08/31 09:58:37;;;;;;;9.43;3.80;;;538.30;2406.40;;;;;;5087088;28;20023;-79
2021/08/31 10:01:04;;;;;;;7.30;3.22;;;538.40;2406.40;;;;;;5090462;28;20253;-76
2021/08/31 10:03:30;;;;;;;6.50;3.60;;;538.40;2406.40;;;;;;5093288;28;20038;-77
2021/08/31 10:05:58;;;;;;;4.72;3.05;;;538.50;2406.40;;;;;;5092955;28;20032;-74
2021/08/31 10:08:25;;;;;;;5.10;2.90;;;538.40;2406.40;;;;;;5092957;28;20027;-78
2021/08/31 10:10:53;;;;;;;5.25;3.35;;;538.40;2406.40;;;;;;5092656;28;20028;-76
2021/08/31 10:13:21;;;;;;;4.28;3.08;;;538.30;2406.40;;;;;;5092946;28;20091;-77
2021/08/31 10:15:56;;;;;;;5.78;3.15;;;538.40;2406.40;;;;;;5093108;28;20032;-77
2021/08/31 10:18:25;;;;;;;5.13;2.87;;;538.40;2406.40;;;;;;5092466;28;20027;-76
2021/08/31 10:20:52;;;;;;;6.85;3.03;;;538.40;2406.40;;;;;;5092491;28;20024;-75
2021/08/31 10:23:29;;;;;;;6.38;2.72;;;563.50;2432.00;;;;;;5092782;28;20065;-77
2021/08/31 10:26:23;;;;;;;4.53;2.25;;;563.70;2380.80;;;;;;5091722;28;20020;-77
2021/08/31 10:29:12;;;;;;;4.47;2.40;;;564.00;2406.40;;;;;;5091899;28;20099;-75
2021/08/31 10:31:38;;;;;;;5.88;2.25;;;588.80;2380.80;;;;;;5089435;28;20027;-76
2021/08/31 10:34:29;;;;;;;3.65;2.20;;;589.20;2355.20;;;;;;5091665;28;20031;-76
2021/08/31 10:37:02;;;;;;;3.72;1.90;;;589.30;2252.80;;;;;;5089111;28;20024;-75
2021/08/31 10:39:45;;;;;;;3.85;2.25;;;589.50;2227.20;;;;;;5091547;28;20021;-76
2021/08/31 10:42:31;;;;;;;3.45;2.28;;;589.70;2278.40;;;;;;5084074;28;20099;-77
2021/08/31 10:44:58;;;;;;;3.72;2.60;;;614.50;2176.00;;;;;;5063785;28;20580;-78
2021/08/31 10:47:28;;;;;;;5.78;2.72;;;614.60;2176.00;;;;;;5092168;28;20098;-76
2021/08/31 10:49:57;;;;;;;3.97;2.63;;;614.80;2252.80;;;;;;5074312;28;20089;-76
2021/08/31 10:52:51;;;;;;;7.03;2.95;;;615.00;2201.60;;;;;;5077838;28;20043;-77
2021/08/31 10:55:26;;;;;;;7.47;3.10;;;615.00;2099.20;;;;;;5049945;28;20518;-78
2021/08/31 10:58:04;;;;;;;5.03;2.97;;;615.20;2048.00;;;;;;5050398;28;20017;-78
2021/08/31 11:00:29;;;;;;;5.18;2.90;;;615.30;2048.00;;;;;;5050468;28;20037;-76
2021/08/31 11:03:00;;;;;;;5.50;2.70;;;640.00;2022.40;;;;;;5050233;28;20121;-76
2021/08/31 11:05:33;;;;;;;4.97;3.30;;;640.10;1996.80;;;;;;5050192;28;20070;-76
2021/08/31 11:08:01;;;;;;;6.03;3.10;;;640.10;2048.00;;;;;;5050122;28;20161;-78
2021/08/31 11:10:31;;;;;;;4.57;2.78;;;640.00;1996.80;;;;;;5050466;28;20498;-76
2021/08/31 11:13:07;;;;;;;4.47;3.17;;;615.10;1996.80;;;;;;5050183;28;20394;-78
2021/08/31 11:15:32;;;;;;;;;;;614.70;2073.60;;;;;;5050779;28;20033;-78
2021/08/31 11:17:58;;;;;;;3.87;2.97;;;614.40;2099.20;;;;;;5050067;28;20020;-77
2021/08/31 11:20:31;;;;;;;3.83;2.65;;;589.70;2099.20;;;;;;5050191;28;20288;-77
2021/08/31 11:23:02;;;;;;;4.25;3.10;;;589.50;2124.80;;;;;;5050189;28;20090;-76
2021/08/31 11:25:31;;;;;;;5.45;3.45;;;589.50;2150.40;;;;;;5033507;28;20109;-75
2021/08/31 11:28:03;;;;;;;4.80;2.88;;;589.40;2176.00;;;;;;5050446;28;20116;-75
2021/08/31 11:30:45;;;;;;;4.85;3.03;;;589.30;2176.00;;;;;;5050181;28;20075;-75
2021/08/31 11:33:19;;;;;;;5.90;3.22;;;589.30;2201.60;;;;;;5100313;28;20028;-76
2021/08/31 11:35:47;;;;;;;8.50;3.85;;;589.20;2201.60;;;;;;5086976;28;20112;-79
2021/08/31 11:38:13;;;;;;;4.95;3.50;;;589.10;2176.00;;;;;;5091543;28;20030;-78
2021/08/31 11:40:40;;;;;;;4.43;3.47;;;589.10;2176.00;;;;;;5091652;28;20055;-76
2021/08/31 11:43:06;;;;;;;7.93;3.53;;;589.10;2176.00;;;;;;5091952;28;20462;-80
2021/08/31 11:45:37;;;;;;;4.70;3.60;;;589.20;2201.60;;;;;;5092122;28;20384;-78
2021/08/31 11:48:05;;;;;;;4.28;3.35;;;589.70;2150.40;;;;;;5096016;28;20026;-78
2021/08/31 11:50:31;;;;;;;3.95;3.00;;;614.50;2099.20;;;;;;5093605;28;20020;-75
2021/08/31 11:52:56;;;;;;;5.88;3.30;;;614.60;2099.20;;;;;;5081436;28;20031;-78
2021/08/31 11:55:27;;;;;;;6.90;3.90;;;614.60;2022.40;;;;;;5095782;28;20119;-78
2021/08/31 11:58:03;;;;;;;4.97;3.50;;;614.90;2124.80;;;;;;5077687;28;20060;-78
2021/08/31 12:00:44;;;;;;;6.07;3.25;;;615.20;2022.40;;;;;;5102451;28;20024;-77
2021/08/31 12:03:28;;;;;;;5.80;3.00;;;640.20;1920.00;;;;;;5101692;28;20027;-76
2021/08/31 12:06:01;;;;;;;3.80;3.03;;;640.40;1920.00;;;;;;5104927;28;20051;-75
2021/08/31 12:08:31;;;;;;;4.10;3.30;;;640.60;1945.60;;;;;;5091650;28;20020;-76
2021/08/31 12:10:57;;;;;;;3.65;2.90;;;640.90;1894.40;;;;;;5104404;28;20064;-78